sensor_id;sensor_type;location;lat;lon;timestamp;P1;durP1;ratioP1;P2;durP2;ratioP2
15130;SDS011;7666;50.920;4.628;2022-11-11T00:02:16;11.03;;;8.03;;
15130;SDS011;7666;50.920;4.628;2022-11-11T00:05:02;10.03;;;7.87;;
15130;SDS011;7666;50.920;4.628;2022-11-11T00:07:48;8.90;;;7.70;;
15130;SDS011;7666;50.920;4.628;2022-11-11T00:10:37;10.50;;;7.30;;
15130;SDS011;7666;50.920;4.628;2022-11-11T00:13:23;9.17;;;7.53;;
15130;SDS011;7666;50.920;4.628;2022-11-11T00:16:10;10.43;;;7.57;;
15130;SDS011;7666;50.920;4.628;2022-11-11T00:18:58;11.23;;;7.67;;
15130;SDS011;7666;50.920;4.628;2022-11-11T00:22:03;9.73;;;7.40;;
15130;SDS011;7666;50.920;4.628;2022-11-11T00:25:08;10.43;;;7.40;;
15130;SDS011;7666;50.920;4.628;2022-11-11T00:27:54;8.57;;;7.00;;
15130;SDS011;7666;50.920;4.628;2022-11-11T00:30:40;13.13;;;8.00;;
15130;SDS011;7666;50.920;4.628;2022-11-11T00:33:26;9.20;;;8.00;;
15130;SDS011;7666;50.920;4.628;2022-11-11T00:36:12;9.70;;;7.50;;
15130;SDS011;7666;50.920;4.628;2022-11-11T00:38:58;12.80;;;7.73;;
15130;SDS011;7666;50.920;4.628;2022-11-11T00:41:44;9.77;;;7.27;;
15130;SDS011;7666;50.920;4.628;2022-11-11T00:44:30;8.53;;;7.27;;
15130;SDS011;7666;50.920;4.628;2022-11-11T00:47:16;9.03;;;7.40;;
15130;SDS011;7666;50.920;4.628;2022-11-11T00:50:25;11.17;;;7.33;;
15130;SDS011;7666;50.920;4.628;2022-11-11T00:53:31;11.53;;;7.67;;
15130;SDS011;7666;50.920;4.628;2022-11-11T00:56:19;10.73;;;8.03;;
15130;SDS011;7666;50.920;4.628;2022-11-11T00:59:06;10.20;;;8.27;;
15130;SDS011;7666;50.920;4.628;2022-11-11T01:01:53;10.70;;;7.93;;
15130;SDS011;7666;50.920;4.628;2022-11-11T01:04:39;12.53;;;7.70;;
15130;SDS011;7666;50.920;4.628;2022-11-11T01:07:24;10.23;;;7.73;;
15130;SDS011;7666;50.920;4.628;2022-11-11T01:10:10;10.93;;;8.27;;
15130;SDS011;7666;50.920;4.628;2022-11-11T01:12:57;10.27;;;7.90;;
15130;SDS011;7666;50.920;4.628;2022-11-11T01:18:47;8.60;;;7.27;;
15130;SDS011;7666;50.920;4.628;2022-11-11T01:21:34;13.73;;;8.13;;
15130;SDS011;7666;50.920;4.628;2022-11-11T01:24:20;10.90;;;8.37;;
15130;SDS011;7666;50.920;4.628;2022-11-11T01:27:06;12.03;;;8.53;;
15130;SDS011;7666;50.920;4.628;2022-11-11T01:29:52;10.97;;;8.20;;
15130;SDS011;7666;50.920;4.628;2022-11-11T01:32:39;10.17;;;8.13;;
15130;SDS011;7666;50.920;4.628;2022-11-11T01:35:25;12.57;;;8.47;;
15130;SDS011;7666;50.920;4.628;2022-11-11T01:38:11;13.70;;;9.03;;
15130;SDS011;7666;50.920;4.628;2022-11-11T01:40:57;14.40;;;9.10;;
15130;SDS011;7666;50.920;4.628;2022-11-11T01:43:43;13.03;;;8.83;;
15130;SDS011;7666;50.920;4.628;2022-11-11T01:52:42;13.63;;;9.57;;
15130;SDS011;7666;50.920;4.628;2022-11-11T01:55:29;13.47;;;9.57;;
15130;SDS011;7666;50.920;4.628;2022-11-11T01:58:16;14.03;;;9.37;;
15130;SDS011;7666;50.920;4.628;2022-11-11T02:01:04;12.57;;;8.77;;
15130;SDS011;7666;50.920;4.628;2022-11-11T02:03:50;12.90;;;9.20;;
15130;SDS011;7666;50.920;4.628;2022-11-11T02:06:59;15.97;;;9.30;;
15130;SDS011;7666;50.920;4.628;2022-11-11T02:09:47;11.43;;;8.47;;
15130;SDS011;7666;50.920;4.628;2022-11-11T02:12:37;14.20;;;9.80;;
15130;SDS011;7666;50.920;4.628;2022-11-11T02:15:41;13.43;;;10.03;;
15130;SDS011;7666;50.920;4.628;2022-11-11T02:18:28;16.33;;;10.97;;
15130;SDS011;7666;50.920;4.628;2022-11-11T02:21:19;12.70;;;9.63;;
15130;SDS011;7666;50.920;4.628;2022-11-11T02:24:16;13.63;;;10.57;;
15130;SDS011;7666;50.920;4.628;2022-11-11T02:27:04;12.63;;;9.97;;
15130;SDS011;7666;50.920;4.628;2022-11-11T02:29:55;11.30;;;9.43;;
15130;SDS011;7666;50.920;4.628;2022-11-11T02:32:45;11.97;;;9.97;;
15130;SDS011;7666;50.920;4.628;2022-11-11T02:35:34;13.27;;;10.20;;
15130;SDS011;7666;50.920;4.628;2022-11-11T02:38:21;13.17;;;9.83;;
15130;SDS011;7666;50.920;4.628;2022-11-11T02:41:09;13.13;;;9.83;;
15130;SDS011;7666;50.920;4.628;2022-11-11T02:44:14;14.20;;;10.10;;
15130;SDS011;7666;50.920;4.628;2022-11-11T02:47:00;13.13;;;10.03;;
15130;SDS011;7666;50.920;4.628;2022-11-11T02:49:45;13.63;;;10.40;;
15130;SDS011;7666;50.920;4.628;2022-11-11T02:52:31;11.50;;;10.30;;
15130;SDS011;7666;50.920;4.628;2022-11-11T02:55:17;14.53;;;11.00;;
15130;SDS011;7666;50.920;4.628;2022-11-11T02:58:03;12.97;;;9.37;;
15130;SDS011;7666;50.920;4.628;2022-11-11T03:00:49;13.00;;;10.10;;
15130;SDS011;7666;50.920;4.628;2022-11-11T03:03:35;13.10;;;10.27;;
15130;SDS011;7666;50.920;4.628;2022-11-11T03:06:21;13.40;;;10.00;;
15130;SDS011;7666;50.920;4.628;2022-11-11T03:09:07;14.60;;;9.60;;
15130;SDS011;7666;50.920;4.628;2022-11-11T03:11:53;14.27;;;10.10;;
15130;SDS011;7666;50.920;4.628;2022-11-11T03:14:39;11.37;;;9.43;;
15130;SDS011;7666;50.920;4.628;2022-11-11T03:17:25;14.63;;;9.50;;
15130;SDS011;7666;50.920;4.628;2022-11-11T03:20:26;12.87;;;9.33;;
15130;SDS011;7666;50.920;4.628;2022-11-11T03:23:31;12.20;;;9.53;;
15130;SDS011;7666;50.920;4.628;2022-11-11T03:26:17;12.07;;;8.90;;
15130;SDS011;7666;50.920;4.628;2022-11-11T03:29:03;13.07;;;9.83;;
15130;SDS011;7666;50.920;4.628;2022-11-11T03:31:50;10.33;;;9.17;;
15130;SDS011;7666;50.920;4.628;2022-11-11T03:34:36;10.17;;;8.80;;
15130;SDS011;7666;50.920;4.628;2022-11-11T03:37:22;11.50;;;9.67;;
15130;SDS011;7666;50.920;4.628;2022-11-11T03:40:27;11.80;;;9.30;;
15130;SDS011;7666;50.920;4.628;2022-11-11T03:43:13;10.20;;;9.10;;
15130;SDS011;7666;50.920;4.628;2022-11-11T03:46:02;11.27;;;8.67;;
15130;SDS011;7666;50.920;4.628;2022-11-11T03:48:49;11.77;;;8.87;;
15130;SDS011;7666;50.920;4.628;2022-11-11T03:51:35;10.90;;;8.70;;
15130;SDS011;7666;50.920;4.628;2022-11-11T03:54:21;12.73;;;8.83;;
15130;SDS011;7666;50.920;4.628;2022-11-11T03:57:07;14.70;;;9.50;;
15130;SDS011;7666;50.920;4.628;2022-11-11T04:00:14;10.07;;;8.80;;
15130;SDS011;7666;50.920;4.628;2022-11-11T04:03:02;13.77;;;9.10;;
15130;SDS011;7666;50.920;4.628;2022-11-11T04:06:12;11.97;;;9.17;;
15130;SDS011;7666;50.920;4.628;2022-11-11T04:09:16;14.97;;;9.57;;
15130;SDS011;7666;50.920;4.628;2022-11-11T04:12:21;11.70;;;8.97;;
15130;SDS011;7666;50.920;4.628;2022-11-11T04:15:08;12.40;;;9.20;;
15130;SDS011;7666;50.920;4.628;2022-11-11T04:18:12;9.47;;;8.47;;
15130;SDS011;7666;50.920;4.628;2022-11-11T04:20:58;12.53;;;8.90;;
15130;SDS011;7666;50.920;4.628;2022-11-11T04:24:03;10.33;;;8.43;;
15130;SDS011;7666;50.920;4.628;2022-11-11T04:27:09;13.07;;;9.10;;
15130;SDS011;7666;50.920;4.628;2022-11-11T04:29:57;11.30;;;9.17;;
15130;SDS011;7666;50.920;4.628;2022-11-11T04:32:44;10.27;;;9.27;;
15130;SDS011;7666;50.920;4.628;2022-11-11T04:35:31;10.27;;;8.90;;
15130;SDS011;7666;50.920;4.628;2022-11-11T04:38:17;12.50;;;9.33;;
15130;SDS011;7666;50.920;4.628;2022-11-11T04:41:22;10.37;;;9.33;;
15130;SDS011;7666;50.920;4.628;2022-11-11T04:44:08;10.63;;;9.53;;
15130;SDS011;7666;50.920;4.628;2022-11-11T04:47:12;14.53;;;10.10;;
15130;SDS011;7666;50.920;4.628;2022-11-11T04:49:58;14.67;;;10.17;;
15130;SDS011;7666;50.920;4.628;2022-11-11T04:52:44;12.20;;;9.90;;
15130;SDS011;7666;50.920;4.628;2022-11-11T04:55:30;12.93;;;10.17;;
15130;SDS011;7666;50.920;4.628;2022-11-11T04:58:35;13.00;;;10.97;;
15130;SDS011;7666;50.920;4.628;2022-11-11T05:01:20;13.70;;;11.23;;
15130;SDS011;7666;50.920;4.628;2022-11-11T05:04:26;14.77;;;12.00;;
15130;SDS011;7666;50.920;4.628;2022-11-11T05:07:12;13.97;;;12.57;;
15130;SDS011;7666;50.920;4.628;2022-11-11T05:10:17;14.57;;;12.07;;
15130;SDS011;7666;50.920;4.628;2022-11-11T05:13:03;13.30;;;11.97;;
15130;SDS011;7666;50.920;4.628;2022-11-11T05:16:15;15.47;;;12.50;;
15130;SDS011;7666;50.920;4.628;2022-11-11T05:19:24;16.43;;;12.80;;
15130;SDS011;7666;50.920;4.628;2022-11-11T05:25:17;15.70;;;11.80;;
15130;SDS011;7666;50.920;4.628;2022-11-11T05:28:13;14.60;;;12.27;;
15130;SDS011;7666;50.920;4.628;2022-11-11T05:30:59;13.83;;;12.43;;
15130;SDS011;7666;50.920;4.628;2022-11-11T05:33:45;13.27;;;11.93;;
15130;SDS011;7666;50.920;4.628;2022-11-11T05:36:31;13.20;;;11.90;;
15130;SDS011;7666;50.920;4.628;2022-11-11T05:39:18;14.33;;;11.60;;
15130;SDS011;7666;50.920;4.628;2022-11-11T05:42:04;12.67;;;11.37;;
15130;SDS011;7666;50.920;4.628;2022-11-11T05:44:50;13.60;;;11.60;;
15130;SDS011;7666;50.920;4.628;2022-11-11T05:47:36;12.67;;;11.33;;
15130;SDS011;7666;50.920;4.628;2022-11-11T05:50:22;12.33;;;11.07;;
15130;SDS011;7666;50.920;4.628;2022-11-11T05:53:08;12.60;;;11.30;;
15130;SDS011;7666;50.920;4.628;2022-11-11T05:55:54;13.67;;;11.07;;
15130;SDS011;7666;50.920;4.628;2022-11-11T05:58:39;12.80;;;11.07;;
15130;SDS011;7666;50.920;4.628;2022-11-11T06:01:26;13.13;;;11.63;;
15130;SDS011;7666;50.920;4.628;2022-11-11T06:04:12;14.57;;;11.40;;
15130;SDS011;7666;50.920;4.628;2022-11-11T06:06:58;14.40;;;11.90;;
15130;SDS011;7666;50.920;4.628;2022-11-11T06:09:44;12.50;;;11.20;;
15130;SDS011;7666;50.920;4.628;2022-11-11T06:12:29;15.23;;;12.27;;
15130;SDS011;7666;50.920;4.628;2022-11-11T06:15:36;16.03;;;12.97;;
15130;SDS011;7666;50.920;4.628;2022-11-11T06:18:22;16.13;;;12.43;;
15130;SDS011;7666;50.920;4.628;2022-11-11T06:21:08;13.60;;;12.20;;
15130;SDS011;7666;50.920;4.628;2022-11-11T06:23:54;14.13;;;12.07;;
15130;SDS011;7666;50.920;4.628;2022-11-11T06:26:40;13.80;;;11.47;;
15130;SDS011;7666;50.920;4.628;2022-11-11T06:29:26;13.77;;;11.67;;
15130;SDS011;7666;50.920;4.628;2022-11-11T06:32:12;14.23;;;12.07;;
15130;SDS011;7666;50.920;4.628;2022-11-11T06:34:58;15.60;;;11.50;;
15130;SDS011;7666;50.920;4.628;2022-11-11T06:37:44;12.87;;;11.47;;
15130;SDS011;7666;50.920;4.628;2022-11-11T06:40:30;13.73;;;11.83;;
15130;SDS011;7666;50.920;4.628;2022-11-11T06:43:16;13.07;;;11.63;;
15130;SDS011;7666;50.920;4.628;2022-11-11T06:46:02;14.80;;;11.80;;
15130;SDS011;7666;50.920;4.628;2022-11-11T06:48:48;12.73;;;10.93;;
15130;SDS011;7666;50.920;4.628;2022-11-11T06:51:34;13.27;;;11.43;;
15130;SDS011;7666;50.920;4.628;2022-11-11T06:54:20;12.93;;;11.37;;
15130;SDS011;7666;50.920;4.628;2022-11-11T06:57:06;14.37;;;10.87;;
15130;SDS011;7666;50.920;4.628;2022-11-11T06:59:52;13.03;;;11.03;;
15130;SDS011;7666;50.920;4.628;2022-11-11T07:02:38;13.93;;;10.90;;
15130;SDS011;7666;50.920;4.628;2022-11-11T07:05:24;13.17;;;11.83;;
15130;SDS011;7666;50.920;4.628;2022-11-11T07:08:11;12.93;;;11.47;;
15130;SDS011;7666;50.920;4.628;2022-11-11T07:10:59;14.83;;;10.90;;
15130;SDS011;7666;50.920;4.628;2022-11-11T07:13:46;13.97;;;11.00;;
15130;SDS011;7666;50.920;4.628;2022-11-11T07:16:32;13.07;;;11.57;;
15130;SDS011;7666;50.920;4.628;2022-11-11T07:19:18;13.07;;;11.60;;
15130;SDS011;7666;50.920;4.628;2022-11-11T07:22:04;12.67;;;11.47;;
15130;SDS011;7666;50.920;4.628;2022-11-11T07:24:50;13.23;;;10.27;;
15130;SDS011;7666;50.920;4.628;2022-11-11T07:27:39;13.07;;;10.87;;
15130;SDS011;7666;50.920;4.628;2022-11-11T07:30:26;11.33;;;10.13;;
15130;SDS011;7666;50.920;4.628;2022-11-11T07:33:12;12.23;;;10.10;;
15130;SDS011;7666;50.920;4.628;2022-11-11T07:35:58;11.33;;;10.10;;
15130;SDS011;7666;50.920;4.628;2022-11-11T07:38:44;15.73;;;10.00;;
15130;SDS011;7666;50.920;4.628;2022-11-11T07:41:30;14.50;;;11.03;;
15130;SDS011;7666;50.920;4.628;2022-11-11T07:44:16;13.63;;;10.43;;
15130;SDS011;7666;50.920;4.628;2022-11-11T07:47:02;11.97;;;10.13;;
15130;SDS011;7666;50.920;4.628;2022-11-11T07:49:48;12.97;;;10.30;;
15130;SDS011;7666;50.920;4.628;2022-11-11T07:52:34;12.13;;;9.17;;
15130;SDS011;7666;50.920;4.628;2022-11-11T07:55:21;11.50;;;9.27;;
15130;SDS011;7666;50.920;4.628;2022-11-11T07:58:08;14.67;;;9.57;;
15130;SDS011;7666;50.920;4.628;2022-11-11T08:00:54;10.47;;;8.90;;
15130;SDS011;7666;50.920;4.628;2022-11-11T08:03:39;13.20;;;9.77;;
15130;SDS011;7666;50.920;4.628;2022-11-11T08:06:33;11.57;;;9.90;;
15130;SDS011;7666;50.920;4.628;2022-11-11T08:09:19;11.57;;;8.83;;
15130;SDS011;7666;50.920;4.628;2022-11-11T08:12:05;10.57;;;8.57;;
15130;SDS011;7666;50.920;4.628;2022-11-11T08:15:10;12.87;;;8.80;;
15130;SDS011;7666;50.920;4.628;2022-11-11T08:17:55;12.80;;;8.80;;
15130;SDS011;7666;50.920;4.628;2022-11-11T08:20:41;10.13;;;8.63;;
15130;SDS011;7666;50.920;4.628;2022-11-11T08:23:27;12.67;;;8.50;;
15130;SDS011;7666;50.920;4.628;2022-11-11T08:26:17;11.80;;;9.10;;
15130;SDS011;7666;50.920;4.628;2022-11-11T08:29:03;10.73;;;8.03;;
15130;SDS011;7666;50.920;4.628;2022-11-11T08:31:50;9.87;;;8.17;;
15130;SDS011;7666;50.920;4.628;2022-11-11T08:34:37;10.27;;;8.53;;
15130;SDS011;7666;50.920;4.628;2022-11-11T08:37:23;8.87;;;7.10;;
15130;SDS011;7666;50.920;4.628;2022-11-11T08:40:09;8.27;;;7.37;;
15130;SDS011;7666;50.920;4.628;2022-11-11T08:42:55;9.83;;;7.13;;
15130;SDS011;7666;50.920;4.628;2022-11-11T08:45:42;9.97;;;7.27;;
15130;SDS011;7666;50.920;4.628;2022-11-11T08:48:29;10.43;;;7.20;;
15130;SDS011;7666;50.920;4.628;2022-11-11T08:51:16;9.07;;;7.30;;
15130;SDS011;7666;50.920;4.628;2022-11-11T08:54:02;8.17;;;7.33;;
15130;SDS011;7666;50.920;4.628;2022-11-11T08:56:48;11.73;;;7.47;;
15130;SDS011;7666;50.920;4.628;2022-11-11T08:59:34;8.27;;;6.70;;
15130;SDS011;7666;50.920;4.628;2022-11-11T09:02:20;10.10;;;7.00;;
15130;SDS011;7666;50.920;4.628;2022-11-11T09:05:06;7.67;;;6.73;;
15130;SDS011;7666;50.920;4.628;2022-11-11T09:07:52;8.37;;;6.67;;
15130;SDS011;7666;50.920;4.628;2022-11-11T09:10:38;6.93;;;6.23;;
15130;SDS011;7666;50.920;4.628;2022-11-11T09:13:24;9.20;;;6.30;;
15130;SDS011;7666;50.920;4.628;2022-11-11T09:16:10;8.40;;;5.97;;
15130;SDS011;7666;50.920;4.628;2022-11-11T09:18:56;8.43;;;6.63;;
15130;SDS011;7666;50.920;4.628;2022-11-11T09:21:42;7.93;;;6.23;;
15130;SDS011;7666;50.920;4.628;2022-11-11T09:24:28;7.13;;;5.70;;
15130;SDS011;7666;50.920;4.628;2022-11-11T09:27:14;7.73;;;5.80;;
15130;SDS011;7666;50.920;4.628;2022-11-11T09:30:00;7.17;;;5.80;;
15130;SDS011;7666;50.920;4.628;2022-11-11T09:32:46;6.93;;;5.23;;
15130;SDS011;7666;50.920;4.628;2022-11-11T09:35:32;6.43;;;5.40;;
15130;SDS011;7666;50.920;4.628;2022-11-11T09:38:18;6.27;;;5.20;;
15130;SDS011;7666;50.920;4.628;2022-11-11T09:47:20;6.73;;;5.10;;
15130;SDS011;7666;50.920;4.628;2022-11-11T09:50:27;4.90;;;4.40;;
15130;SDS011;7666;50.920;4.628;2022-11-11T09:56:11;4.47;;;3.60;;
15130;SDS011;7666;50.920;4.628;2022-11-11T09:59:13;3.73;;;3.27;;
15130;SDS011;7666;50.920;4.628;2022-11-11T10:05:27;4.47;;;3.40;;
15130;SDS011;7666;50.920;4.628;2022-11-11T10:08:23;8.00;;;3.10;;
15130;SDS011;7666;50.920;4.628;2022-11-11T10:11:14;4.30;;;3.40;;
15130;SDS011;7666;50.920;4.628;2022-11-11T10:14:05;3.70;;;2.90;;
15130;SDS011;7666;50.920;4.628;2022-11-11T10:16:58;4.77;;;3.03;;
15130;SDS011;7666;50.920;4.628;2022-11-11T10:22:46;5.67;;;2.60;;
15130;SDS011;7666;50.920;4.628;2022-11-11T10:25:36;2.93;;;2.47;;
15130;SDS011;7666;50.920;4.628;2022-11-11T10:28:32;4.10;;;2.90;;
15130;SDS011;7666;50.920;4.628;2022-11-11T10:31:21;3.37;;;2.60;;
15130;SDS011;7666;50.920;4.628;2022-11-11T10:34:09;2.93;;;2.43;;
15130;SDS011;7666;50.920;4.628;2022-11-11T10:36:57;3.03;;;2.40;;
15130;SDS011;7666;50.920;4.628;2022-11-11T10:40:04;3.23;;;1.83;;
15130;SDS011;7666;50.920;4.628;2022-11-11T10:43:18;2.33;;;1.90;;
15130;SDS011;7666;50.920;4.628;2022-11-11T10:49:07;2.53;;;1.63;;
15130;SDS011;7666;50.920;4.628;2022-11-11T10:52:20;1.97;;;1.80;;
15130;SDS011;7666;50.920;4.628;2022-11-11T10:58:06;2.50;;;1.80;;
15130;SDS011;7666;50.920;4.628;2022-11-11T11:01:01;2.30;;;1.70;;
15130;SDS011;7666;50.920;4.628;2022-11-11T11:03:57;2.03;;;1.53;;
15130;SDS011;7666;50.920;4.628;2022-11-11T11:06:48;1.97;;;1.53;;
15130;SDS011;7666;50.920;4.628;2022-11-11T11:09:39;2.30;;;1.47;;
15130;SDS011;7666;50.920;4.628;2022-11-11T11:15:24;2.27;;;1.50;;
15130;SDS011;7666;50.920;4.628;2022-11-11T11:18:13;1.80;;;1.30;;
15130;SDS011;7666;50.920;4.628;2022-11-11T11:21:04;3.37;;;1.60;;
15130;SDS011;7666;50.920;4.628;2022-11-11T11:23:52;1.77;;;1.10;;
15130;SDS011;7666;50.920;4.628;2022-11-11T11:26:44;2.57;;;1.37;;
15130;SDS011;7666;50.920;4.628;2022-11-11T11:29:40;2.17;;;1.30;;
15130;SDS011;7666;50.920;4.628;2022-11-11T11:32:28;2.43;;;1.20;;
15130;SDS011;7666;50.920;4.628;2022-11-11T11:38:38;3.37;;;1.47;;
15130;SDS011;7666;50.920;4.628;2022-11-11T11:41:37;2.67;;;1.33;;
15130;SDS011;7666;50.920;4.628;2022-11-11T11:44:34;4.13;;;1.80;;
15130;SDS011;7666;50.920;4.628;2022-11-11T11:53:19;3.30;;;1.40;;
15130;SDS011;7666;50.920;4.628;2022-11-11T11:56:24;3.57;;;1.67;;
15130;SDS011;7666;50.920;4.628;2022-11-11T11:59:38;2.33;;;1.30;;
15130;SDS011;7666;50.920;4.628;2022-11-11T12:06:02;2.03;;;1.30;;
15130;SDS011;7666;50.920;4.628;2022-11-11T12:11:57;3.90;;;1.13;;
15130;SDS011;7666;50.920;4.628;2022-11-11T12:15:03;1.40;;;1.03;;
15130;SDS011;7666;50.920;4.628;2022-11-11T12:21:20;4.43;;;1.60;;
15130;SDS011;7666;50.920;4.628;2022-11-11T12:24:19;2.37;;;1.23;;
15130;SDS011;7666;50.920;4.628;2022-11-11T12:27:18;2.33;;;1.17;;
15130;SDS011;7666;50.920;4.628;2022-11-11T12:30:23;3.13;;;1.40;;
15130;SDS011;7666;50.920;4.628;2022-11-11T12:45:51;1.63;;;0.97;;
15130;SDS011;7666;50.920;4.628;2022-11-11T12:49:11;2.50;;;1.23;;
15130;SDS011;7666;50.920;4.628;2022-11-11T12:55:34;1.43;;;1.23;;
15130;SDS011;7666;50.920;4.628;2022-11-11T13:01:20;1.33;;;1.07;;
15130;SDS011;7666;50.920;4.628;2022-11-11T13:04:34;1.97;;;1.00;;
15130;SDS011;7666;50.920;4.628;2022-11-11T13:11:02;2.03;;;1.10;;
15130;SDS011;7666;50.920;4.628;2022-11-11T13:14:23;1.17;;;0.93;;
15130;SDS011;7666;50.920;4.628;2022-11-11T13:17:18;3.70;;;1.17;;
15130;SDS011;7666;50.920;4.628;2022-11-11T13:20:10;2.20;;;1.10;;
15130;SDS011;7666;50.920;4.628;2022-11-11T13:23:06;2.10;;;0.97;;
15130;SDS011;7666;50.920;4.628;2022-11-11T13:25:57;1.60;;;1.13;;
15130;SDS011;7666;50.920;4.628;2022-11-11T13:28:47;1.63;;;1.20;;
15130;SDS011;7666;50.920;4.628;2022-11-11T13:31:36;2.07;;;1.10;;
15130;SDS011;7666;50.920;4.628;2022-11-11T13:34:25;1.37;;;1.27;;
15130;SDS011;7666;50.920;4.628;2022-11-11T13:37:18;2.43;;;1.40;;
15130;SDS011;7666;50.920;4.628;2022-11-11T13:43:24;1.87;;;1.30;;
15130;SDS011;7666;50.920;4.628;2022-11-11T13:52:51;2.17;;;1.30;;
15130;SDS011;7666;50.920;4.628;2022-11-11T13:55:42;2.30;;;1.20;;
15130;SDS011;7666;50.920;4.628;2022-11-11T13:58:32;1.93;;;1.20;;
15130;SDS011;7666;50.920;4.628;2022-11-11T14:01:22;2.80;;;1.53;;
15130;SDS011;7666;50.920;4.628;2022-11-11T14:04:09;1.83;;;1.30;;
15130;SDS011;7666;50.920;4.628;2022-11-11T14:06:55;2.73;;;1.50;;
15130;SDS011;7666;50.920;4.628;2022-11-11T14:09:55;1.97;;;1.00;;
15130;SDS011;7666;50.920;4.628;2022-11-11T14:12:47;2.03;;;1.40;;
15130;SDS011;7666;50.920;4.628;2022-11-11T14:15:49;2.40;;;1.40;;
15130;SDS011;7666;50.920;4.628;2022-11-11T14:18:39;1.53;;;1.20;;
15130;SDS011;7666;50.920;4.628;2022-11-11T14:21:46;2.00;;;1.30;;
15130;SDS011;7666;50.920;4.628;2022-11-11T14:24:43;1.60;;;1.33;;
15130;SDS011;7666;50.920;4.628;2022-11-11T14:27:31;1.80;;;1.13;;
15130;SDS011;7666;50.920;4.628;2022-11-11T14:33:54;1.40;;;1.30;;
15130;SDS011;7666;50.920;4.628;2022-11-11T14:40:07;3.13;;;1.73;;
15130;SDS011;7666;50.920;4.628;2022-11-11T14:42:57;1.77;;;1.50;;
15130;SDS011;7666;50.920;4.628;2022-11-11T14:51:52;3.73;;;1.70;;
15130;SDS011;7666;50.920;4.628;2022-11-11T15:00:49;3.83;;;1.93;;
15130;SDS011;7666;50.920;4.628;2022-11-11T15:03:41;3.20;;;1.67;;
15130;SDS011;7666;50.920;4.628;2022-11-11T15:09:45;3.13;;;1.60;;
15130;SDS011;7666;50.920;4.628;2022-11-11T15:13:38;2.37;;;1.63;;
15130;SDS011;7666;50.920;4.628;2022-11-11T15:16:07;3.70;;;1.60;;
15130;SDS011;7666;50.920;4.628;2022-11-11T15:25:30;4.67;;;1.70;;
15130;SDS011;7666;50.920;4.628;2022-11-11T15:28:33;3.40;;;1.83;;
15130;SDS011;7666;50.920;4.628;2022-11-11T15:31:55;3.00;;;1.63;;
15130;SDS011;7666;50.920;4.628;2022-11-11T15:34:53;4.33;;;1.70;;
15130;SDS011;7666;50.920;4.628;2022-11-11T15:37:49;1.87;;;1.30;;
15130;SDS011;7666;50.920;4.628;2022-11-11T15:40:42;3.57;;;1.77;;
15130;SDS011;7666;50.920;4.628;2022-11-11T15:43:33;2.23;;;1.70;;
15130;SDS011;7666;50.920;4.628;2022-11-11T15:46:24;3.27;;;1.83;;
15130;SDS011;7666;50.920;4.628;2022-11-11T15:52:23;2.93;;;1.83;;
15130;SDS011;7666;50.920;4.628;2022-11-11T15:55:21;2.90;;;1.80;;
15130;SDS011;7666;50.920;4.628;2022-11-11T15:58:09;2.07;;;1.60;;
15130;SDS011;7666;50.920;4.628;2022-11-11T16:00:59;3.83;;;1.50;;
15130;SDS011;7666;50.920;4.628;2022-11-11T16:03:48;2.90;;;1.70;;
15130;SDS011;7666;50.920;4.628;2022-11-11T16:06:35;7.93;;;3.40;;
15130;SDS011;7666;50.920;4.628;2022-11-11T16:09:23;5.03;;;3.00;;
15130;SDS011;7666;50.920;4.628;2022-11-11T16:12:15;3.00;;;1.90;;
15130;SDS011;7666;50.920;4.628;2022-11-11T16:15:24;2.27;;;1.57;;
15130;SDS011;7666;50.920;4.628;2022-11-11T16:18:17;1.57;;;1.43;;
15130;SDS011;7666;50.920;4.628;2022-11-11T16:23:59;2.67;;;2.00;;
15130;SDS011;7666;50.920;4.628;2022-11-11T16:26:46;3.07;;;1.87;;
15130;SDS011;7666;50.920;4.628;2022-11-11T16:29:36;4.07;;;2.00;;
15130;SDS011;7666;50.920;4.628;2022-11-11T16:35:25;2.63;;;2.00;;
15130;SDS011;7666;50.920;4.628;2022-11-11T16:38:32;2.60;;;1.90;;
15130;SDS011;7666;50.920;4.628;2022-11-11T16:53:03;4.20;;;2.53;;
15130;SDS011;7666;50.920;4.628;2022-11-11T16:55:51;4.47;;;2.10;;
15130;SDS011;7666;50.920;4.628;2022-11-11T16:58:37;3.73;;;2.47;;
15130;SDS011;7666;50.920;4.628;2022-11-11T17:01:27;3.70;;;1.97;;
15130;SDS011;7666;50.920;4.628;2022-11-11T17:04:14;3.67;;;2.27;;
15130;SDS011;7666;50.920;4.628;2022-11-11T17:07:00;4.13;;;2.43;;
15130;SDS011;7666;50.920;4.628;2022-11-11T17:09:46;3.77;;;2.20;;
15130;SDS011;7666;50.920;4.628;2022-11-11T17:12:32;3.37;;;1.97;;
15130;SDS011;7666;50.920;4.628;2022-11-11T17:15:20;3.40;;;1.80;;
15130;SDS011;7666;50.920;4.628;2022-11-11T17:18:06;4.43;;;2.00;;
15130;SDS011;7666;50.920;4.628;2022-11-11T17:20:53;3.07;;;2.10;;
15130;SDS011;7666;50.920;4.628;2022-11-11T17:23:40;2.10;;;1.90;;
15130;SDS011;7666;50.920;4.628;2022-11-11T17:26:26;2.50;;;1.97;;
15130;SDS011;7666;50.920;4.628;2022-11-11T17:29:13;2.80;;;2.17;;
15130;SDS011;7666;50.920;4.628;2022-11-11T17:31:59;3.20;;;2.10;;
15130;SDS011;7666;50.920;4.628;2022-11-11T17:34:45;2.00;;;1.80;;
15130;SDS011;7666;50.920;4.628;2022-11-11T17:37:37;4.90;;;2.10;;
15130;SDS011;7666;50.920;4.628;2022-11-11T17:40:24;3.50;;;2.20;;
15130;SDS011;7666;50.920;4.628;2022-11-11T17:43:10;4.83;;;2.23;;
15130;SDS011;7666;50.920;4.628;2022-11-11T17:45:59;2.37;;;1.80;;
15130;SDS011;7666;50.920;4.628;2022-11-11T17:48:45;5.13;;;2.37;;
15130;SDS011;7666;50.920;4.628;2022-11-11T17:51:31;4.47;;;2.30;;
15130;SDS011;7666;50.920;4.628;2022-11-11T17:54:17;3.33;;;2.67;;
15130;SDS011;7666;50.920;4.628;2022-11-11T17:57:03;4.47;;;2.57;;
15130;SDS011;7666;50.920;4.628;2022-11-11T17:59:49;4.20;;;2.60;;
15130;SDS011;7666;50.920;4.628;2022-11-11T18:02:35;4.13;;;2.50;;
15130;SDS011;7666;50.920;4.628;2022-11-11T18:05:21;6.90;;;5.23;;
15130;SDS011;7666;50.920;4.628;2022-11-11T18:08:07;6.73;;;4.23;;
15130;SDS011;7666;50.920;4.628;2022-11-11T18:10:57;4.23;;;3.70;;
15130;SDS011;7666;50.920;4.628;2022-11-11T18:13:47;5.23;;;3.53;;
15130;SDS011;7666;50.920;4.628;2022-11-11T18:16:33;3.50;;;2.20;;
15130;SDS011;7666;50.920;4.628;2022-11-11T18:19:19;3.10;;;2.30;;
15130;SDS011;7666;50.920;4.628;2022-11-11T18:22:05;2.37;;;2.00;;
15130;SDS011;7666;50.920;4.628;2022-11-11T18:24:51;3.43;;;2.40;;
15130;SDS011;7666;50.920;4.628;2022-11-11T18:27:37;4.23;;;2.43;;
15130;SDS011;7666;50.920;4.628;2022-11-11T18:30:23;2.17;;;2.03;;
15130;SDS011;7666;50.920;4.628;2022-11-11T18:33:09;3.63;;;2.00;;
15130;SDS011;7666;50.920;4.628;2022-11-11T18:35:55;3.73;;;1.90;;
15130;SDS011;7666;50.920;4.628;2022-11-11T18:38:46;2.40;;;2.20;;
15130;SDS011;7666;50.920;4.628;2022-11-11T18:41:32;3.73;;;2.30;;
15130;SDS011;7666;50.920;4.628;2022-11-11T18:44:18;3.27;;;2.20;;
15130;SDS011;7666;50.920;4.628;2022-11-11T18:47:04;3.30;;;2.20;;
15130;SDS011;7666;50.920;4.628;2022-11-11T18:49:50;3.20;;;1.93;;
15130;SDS011;7666;50.920;4.628;2022-11-11T18:52:36;3.30;;;2.30;;
15130;SDS011;7666;50.920;4.628;2022-11-11T18:55:22;2.70;;;2.47;;
15130;SDS011;7666;50.920;4.628;2022-11-11T18:58:07;3.20;;;2.80;;
15130;SDS011;7666;50.920;4.628;2022-11-11T19:01:01;4.13;;;2.70;;
15130;SDS011;7666;50.920;4.628;2022-11-11T19:03:55;4.43;;;3.03;;
15130;SDS011;7666;50.920;4.628;2022-11-11T19:06:42;3.77;;;3.30;;
15130;SDS011;7666;50.920;4.628;2022-11-11T19:09:28;3.57;;;2.87;;
15130;SDS011;7666;50.920;4.628;2022-11-11T19:12:14;4.40;;;2.63;;
15130;SDS011;7666;50.920;4.628;2022-11-11T19:15:00;2.93;;;2.63;;
15130;SDS011;7666;50.920;4.628;2022-11-11T19:17:46;3.93;;;2.50;;
15130;SDS011;7666;50.920;4.628;2022-11-11T19:20:31;3.27;;;2.33;;
15130;SDS011;7666;50.920;4.628;2022-11-11T19:23:17;1.93;;;1.77;;
15130;SDS011;7666;50.920;4.628;2022-11-11T19:26:04;3.20;;;2.10;;
15130;SDS011;7666;50.920;4.628;2022-11-11T19:28:50;1.80;;;1.70;;
15130;SDS011;7666;50.920;4.628;2022-11-11T19:31:36;3.73;;;2.33;;